createdAt,value
2022-10-05T00:01:57.122Z,99413.19
2022-10-05T00:04:33.461Z,99417.91
2022-10-05T00:07:21.676Z,99417.59
2022-10-05T00:10:03.433Z,99421.72
2022-10-05T00:12:46.605Z,99428.38
2022-10-05T00:15:27.137Z,99428.34
2022-10-05T05:05:31.048Z,99444.59
2022-10-05T05:08:26.364Z,99456.22
2022-10-05T05:11:23.760Z,99446.28
2022-10-05T05:14:29.282Z,99476.09
2022-10-05T05:17:45.543Z,99479.41
2022-10-05T05:20:50.465Z,99474.41
2022-10-05T05:23:32.993Z,99445.72
2022-10-05T05:26:32.758Z,99481.88
2022-10-05T05:29:36.137Z,99475.25
2022-10-05T05:32:39.159Z,99464.47
2022-10-05T05:35:47.034Z,99475.47
2022-10-05T05:38:57.736Z,99469.69
2022-10-05T05:42:09.635Z,99476.88
2022-10-05T05:44:51.291Z,99478.78
2022-10-05T05:47:46.818Z,99472.50
2022-10-05T05:51:03.753Z,99475.75
2022-10-05T05:53:54.778Z,99474.38
2022-10-05T05:56:59.367Z,99484.25
2022-10-05T06:00:21.863Z,99484.25
2022-10-05T06:03:20.953Z,99487.03
2022-10-05T06:05:58.893Z,99483.75
2022-10-05T06:09:14.191Z,99497.50
2022-10-05T06:12:09.151Z,99489.75
2022-10-05T06:14:49.951Z,99498.81
2022-10-05T06:17:44.804Z,99508.19
2022-10-05T06:20:22.389Z,99501.25
2022-10-05T06:22:55.332Z,99505.44
2022-10-05T06:25:55.183Z,99517.34
2022-10-05T06:28:35.841Z,99504.00
2022-10-05T06:34:54.135Z,99523.41
2022-10-05T06:37:55.231Z,99523.31
2022-10-05T06:40:44.282Z,99532.22
2022-10-05T06:43:55.505Z,99532.00
2022-10-05T06:47:19.221Z,99532.25
2022-10-05T06:50:39.334Z,99523.31
2022-10-05T06:53:56.978Z,99517.16
2022-10-05T06:57:42.458Z,99530.06
2022-10-05T07:00:24.271Z,99527.81
2022-10-05T07:03:43.055Z,99529.97
2022-10-05T07:06:35.674Z,99531.69
2022-10-05T07:09:49.631Z,99529.72
2022-10-05T07:12:37.753Z,99529.19
2022-10-05T07:18:58.803Z,99536.69
2022-10-05T07:22:10.100Z,99541.09
2022-10-05T07:25:03.213Z,99537.22
2022-10-05T07:27:37.263Z,99540.53
2022-10-05T07:33:25.318Z,99534.78
2022-10-05T07:36:44.330Z,99534.56
2022-10-05T07:39:58.378Z,99535.66
2022-10-05T07:42:59.894Z,99527.81
2022-10-05T07:46:03.976Z,99528.03
2022-10-05T07:48:57.879Z,99525.25
2022-10-05T07:51:48.375Z,99525.66
2022-10-05T07:54:22.926Z,99518.97
2022-10-05T07:57:08.183Z,99522.41
2022-10-05T08:00:08.509Z,99531.22
2022-10-05T08:03:20.930Z,99530.56
2022-10-05T08:05:51.337Z,99522.50
2022-10-05T08:08:59.720Z,99532.09
2022-10-05T08:12:02.335Z,99525.97
